Time;durP1;ratioP1;P1;durP2;ratioP2;P2;SDS_P1;SDS_P2;PMS_P1;PMS_P2;Temp;Humidity;BMP_temperature;BMP_pressure;BME280_temperature;BME280_humidity;BME280_pressure;Samples;Min_cycle;Max_cycle;Signal;HPM_P1;HPM_P2
2024/04/09 00:01:39;;;;;;;18.80;4.97;;;18.10;15.90;;;;;;5488442;26;20280;-65
2024/04/09 00:04:08;;;;;;;17.80;4.97;;;17.80;18.10;;;;;;5523068;25;20461;-65
2024/04/09 00:06:34;;;;;;;19.30;5.73;;;17.60;25.30;;;;;;5498854;25;20702;-65
2024/04/09 00:09:02;;;;;;;16.93;5.20;;;17.50;17.90;;;;;;5503892;26;20477;-64
2024/04/09 00:11:30;;;;;;;20.80;5.20;;;17.70;10.60;;;;;;5512705;25;20227;-65
2024/04/09 00:14:00;;;;;;;14.03;4.27;;;17.90;10.60;;;;;;5494660;25;20477;-65
2024/04/09 00:16:26;;;;;;;21.70;3.80;;;18.10;7.30;;;;;;5500754;25;20454;-64
2024/04/09 00:18:55;;;;;;;16.80;3.83;;;18.10;9.90;;;;;;5488901;26;20908;-64
2024/04/09 00:21:21;;;;;;;18.40;3.70;;;18.20;10.90;;;;;;5524815;25;20452;-64
2024/04/09 00:23:50;;;;;;;19.07;4.33;;;18.20;10.80;;;;;;5495132;25;20549;-65
2024/04/09 00:26:16;;;;;;;20.77;3.80;;;18.10;10.80;;;;;;5503310;26;20506;-65
2024/04/09 00:28:47;;;;;;;24.73;3.90;;;18.00;11.40;;;;;;5501457;26;20515;-65
2024/04/09 00:31:13;;;;;;;22.10;4.30;;;18.00;14.30;;;;;;5524578;25;20889;-65
2024/04/09 00:33:41;;;;;;;15.47;5.83;;;17.90;18.20;;;;;;5512616;25;20583;-65
2024/04/09 00:36:12;;;;;;;19.63;4.63;;;17.70;18.00;;;;;;5487997;26;20329;-63
2024/04/09 00:38:43;;;;;;;18.80;4.37;;;17.60;18.00;;;;;;5503958;26;20861;-65
2024/04/09 00:41:10;;;;;;;18.37;4.90;;;17.50;17.90;;;;;;5487256;26;21002;-65
2024/04/09 00:43:39;;;;;;;18.40;4.00;;;17.40;19.20;;;;;;5514838;25;20761;-65
2024/04/09 00:46:10;;;;;;;18.00;4.20;;;17.30;21.30;;;;;;5490819;25;20457;-65
2024/04/09 00:48:39;;;;;;;14.50;4.07;;;17.30;25.00;;;;;;5499494;26;20449;-64
2024/04/09 00:51:06;;;;;;;9.73;3.27;;;17.30;25.10;;;;;;5523817;25;20475;-65
2024/04/09 00:53:36;;;;;;;12.00;3.40;;;17.30;25.10;;;;;;5513704;25;20522;-65
2024/04/09 00:56:05;;;;;;;22.33;4.73;;;17.30;25.10;;;;;;5506283;26;20506;-65
2024/04/09 00:58:34;;;;;;;16.80;3.93;;;17.20;25.00;;;;;;5499821;25;20542;-65
2024/04/09 01:01:00;;;;;;;18.40;5.67;;;17.20;25.00;;;;;;5490697;26;20508;-65
2024/04/09 01:03:32;;;;;;;16.80;4.67;;;17.10;25.00;;;;;;5500191;26;20452;-65
2024/04/09 01:05:58;;;;;;;15.70;4.70;;;17.00;31.10;;;;;;5497330;25;21079;-65
2024/04/09 01:08:26;;;;;;;15.20;4.00;;;16.90;32.80;;;;;;5527956;25;20460;-65
2024/04/09 01:10:52;;;;;;;19.60;4.87;;;16.80;32.30;;;;;;5527481;25;20558;-65
2024/04/09 01:13:20;;;;;;;14.83;3.30;;;16.70;32.20;;;;;;5520832;25;20470;-65
2024/04/09 01:15:46;;;;;;;22.23;4.70;;;16.70;32.20;;;;;;5505425;26;20220;-65
2024/04/09 01:18:15;;;;;;;18.13;4.30;;;16.50;32.10;;;;;;5497744;25;20468;-64
2024/04/09 01:20:43;;;;;;;9.63;3.60;;;16.50;32.00;;;;;;5527633;25;20683;-65
2024/04/09 01:23:14;;;;;;;20.63;4.73;;;16.40;32.00;;;;;;5508247;25;20477;-65
2024/04/09 01:25:40;;;;;;;17.37;4.70;;;16.30;32.00;;;;;;5491169;26;20466;-65
2024/04/09 01:28:09;;;;;;;20.57;4.23;;;16.30;40.20;;;;;;5505991;26;20450;-65
2024/04/09 01:30:35;;;;;;;19.07;3.80;;;16.20;40.80;;;;;;5516898;26;20581;-64
2024/04/09 01:33:04;;;;;;;17.20;4.70;;;16.10;41.90;;;;;;5509538;25;20485;-64
2024/04/09 01:35:30;;;;;;;23.30;4.50;;;16.00;48.20;;;;;;5516165;25;20219;-65
2024/04/09 01:37:58;;;;;;;17.43;5.23;;;15.90;49.30;;;;;;5496998;25;21095;-65
2024/04/09 01:40:27;;;;;;;15.37;4.97;;;16.00;50.30;;;;;;5503042;25;20462;-65
2024/04/09 01:42:55;;;;;;;13.30;5.23;;;15.90;49.30;;;;;;5521398;25;20558;-65
2024/04/09 01:45:21;;;;;;;18.53;5.20;;;16.00;50.30;;;;;;5527275;25;21070;-65
2024/04/09 01:47:50;;;;;;;15.43;5.10;;;15.90;49.40;;;;;;5527303;25;20602;-65
2024/04/09 01:50:16;;;;;;;20.47;5.53;;;15.80;49.30;;;;;;5504830;25;20229;-65
2024/04/09 01:52:45;;;;;;;16.83;8.10;;;15.70;49.20;;;;;;5518877;25;21002;-64
2024/04/09 01:55:11;;;;;;;12.93;8.97;;;15.60;53.60;;;;;;5496857;25;20853;-65
2024/04/09 01:57:44;;;;;;;17.47;9.90;;;15.40;57.70;;;;;;5526957;25;20883;-65
2024/04/09 02:00:19;;;;;;;25.57;19.73;;;15.20;65.40;;;;;;5521564;25;20513;-65
2024/04/09 02:02:52;;;;;;;61.50;57.90;;;15.10;65.60;;;;;;5504509;26;20530;-64
2024/04/09 02:05:18;;;;;;;41.60;38.90;;;15.00;65.50;;;;;;5520241;25;20454;-65
2024/04/09 02:07:46;;;;;;;70.43;66.83;;;14.90;72.50;;;;;;5503761;26;20505;-65
2024/04/09 02:10:13;;;;;;;93.83;89.30;;;14.70;73.30;;;;;;5504344;25;21036;-65
2024/04/09 02:12:44;;;;;;;129.37;124.23;;;14.70;79.80;;;;;;5505374;26;20525;-64
2024/04/09 02:15:12;;;;;;;158.27;151.63;;;14.60;81.00;;;;;;5490141;26;20585;-65
2024/04/09 02:17:41;;;;;;;145.87;139.63;;;14.70;81.20;;;;;;5517521;26;20457;-65
2024/04/09 02:20:10;;;;;;;145.53;139.77;;;14.70;81.20;;;;;;5522021;25;20597;-65
2024/04/09 02:22:39;;;;;;;149.17;143.17;;;14.70;81.20;;;;;;5489582;26;21013;-65
2024/04/09 02:25:05;;;;;;;188.00;181.00;;;14.70;81.20;;;;;;5509089;26;20551;-65
2024/04/09 02:27:33;;;;;;;220.37;212.10;;;14.60;81.10;;;;;;5526680;25;20889;-65
2024/04/09 02:30:03;;;;;;;220.70;212.37;;;14.60;81.10;;;;;;5523680;25;20500;-65
2024/04/09 02:32:32;;;;;;;223.57;215.33;;;14.50;81.10;;;;;;5499946;26;20452;-65
2024/04/09 02:34:58;;;;;;;190.87;183.70;;;14.50;83.70;;;;;;5509318;25;20470;-64
2024/04/09 02:37:28;;;;;;;196.23;188.90;;;14.40;81.20;;;;;;5513988;26;20916;-65
2024/04/09 02:39:53;;;;;;;242.00;233.40;;;14.50;83.30;;;;;;5495470;25;20229;-65
2024/04/09 02:42:23;;;;;;;229.97;221.53;;;14.40;86.80;;;;;;5526550;25;20517;-65
2024/04/09 02:44:49;;;;;;;254.37;244.47;;;14.20;83.00;;;;;;5511874;25;20225;-65
2024/04/09 02:47:20;;;;;;;348.37;334.90;;;14.00;92.40;;;;;;5511134;26;20801;-64
2024/04/09 02:49:46;;;;;;;353.70;339.57;;;13.90;92.60;;;;;;5511804;25;21184;-65
2024/04/09 02:52:15;;;;;;;367.40;351.53;;;13.90;96.00;;;;;;5510484;25;20569;-65
2024/04/09 02:54:41;;;;;;;394.17;378.40;;;13.80;96.40;;;;;;5497993;25;21000;-64
2024/04/09 02:57:09;;;;;;;385.90;369.57;;;13.80;99.00;;;;;;5493663;26;20570;-65
2024/04/09 02:59:35;;;;;;;380.07;364.00;;;13.90;99.20;;;;;;5514277;25;20566;-65
2024/04/09 03:02:04;;;;;;;396.37;380.33;;;13.80;98.20;;;;;;5507156;26;20460;-65
2024/04/09 03:04:32;;;;;;;378.23;362.77;;;13.90;99.10;;;;;;5526204;25;20227;-64
2024/04/09 03:07:01;;;;;;;379.47;363.93;;;13.80;99.10;;;;;;5502244;25;20476;-65
2024/04/09 03:09:27;;;;;;;381.00;366.03;;;13.80;99.10;;;;;;5481811;26;20504;-65
2024/04/09 03:11:55;;;;;;;375.40;359.93;;;13.90;99.20;;;;;;5483673;26;20490;-65
2024/04/09 03:14:21;;;;;;;378.60;362.60;;;13.90;99.20;;;;;;5489191;26;20469;-65
2024/04/09 03:16:50;;;;;;;368.53;354.03;;;14.00;99.20;;;;;;5489251;26;20450;-65
2024/04/09 03:19:18;;;;;;;329.43;317.10;;;14.00;99.20;;;;;;5460223;26;20946;-64
2024/04/09 03:21:49;;;;;;;291.87;281.50;;;14.10;96.20;;;;;;5480692;26;20477;-64
2024/04/09 03:24:15;;;;;;;294.97;284.60;;;14.20;94.30;;;;;;5495676;26;20457;-64
2024/04/09 03:26:43;;;;;;;300.37;289.47;;;14.30;94.20;;;;;;5526098;25;20568;-64
2024/04/09 03:29:09;;;;;;;309.43;297.67;;;14.40;96.10;;;;;;5525761;25;20730;-64
2024/04/09 03:31:38;;;;;;;319.13;307.23;;;14.40;96.20;;;;;;5513928;25;20522;-65
2024/04/09 03:34:03;;;;;;;266.97;257.47;;;14.40;93.30;;;;;;5487948;26;20333;-65
2024/04/09 03:36:32;;;;;;;211.37;203.63;;;14.60;92.90;;;;;;5468214;26;20474;-65
2024/04/09 03:39:04;;;;;;;97.23;93.50;;;14.70;92.80;;;;;;5485346;26;20232;-65
2024/04/09 03:41:32;;;;;;;86.83;83.00;;;14.90;81.40;;;;;;5488510;26;20896;-65
2024/04/09 03:44:00;;;;;;;48.40;45.87;;;15.00;81.50;;;;;;5505891;25;20453;-65
2024/04/09 03:46:28;;;;;;;57.67;54.63;;;15.10;81.60;;;;;;5525531;25;20461;-65
2024/04/09 03:48:54;;;;;;;66.63;63.80;;;15.10;81.60;;;;;;5525608;25;20476;-64
2024/04/09 03:51:22;;;;;;;116.00;111.70;;;15.00;81.90;;;;;;5525106;25;20952;-64
2024/04/09 03:53:48;;;;;;;143.63;138.37;;;14.90;89.20;;;;;;5525724;25;20594;-65
2024/04/09 03:56:19;;;;;;;182.00;175.70;;;14.80;90.50;;;;;;5525826;25;20460;-64
2024/04/09 03:58:47;;;;;;;210.80;203.57;;;14.60;92.60;;;;;;5525895;25;20283;-63
2024/04/09 04:01:16;;;;;;;231.57;224.13;;;14.50;92.80;;;;;;5503844;25;21020;-64
2024/04/09 04:03:45;;;;;;;254.07;245.37;;;14.60;92.90;;;;;;5517135;25;20477;-64
2024/04/09 04:06:14;;;;;;;291.83;281.23;;;14.50;92.80;;;;;;5463639;25;20460;-64
2024/04/09 04:08:42;;;;;;;323.57;311.50;;;14.50;92.80;;;;;;5488165;26;21024;-64
2024/04/09 04:11:12;;;;;;;317.87;305.87;;;14.40;92.80;;;;;;5522820;25;21165;-65
2024/04/09 04:13:41;;;;;;;355.97;342.30;;;14.40;92.90;;;;;;5525109;25;20536;-65
2024/04/09 04:16:12;;;;;;;363.57;349.07;;;14.30;93.00;;;;;;5490423;25;20822;-64
2024/04/09 04:18:39;;;;;;;389.50;373.70;;;14.30;96.30;;;;;;5500407;26;20512;-65
2024/04/09 04:21:12;;;;;;;382.23;366.67;;;14.20;96.90;;;;;;5524790;25;20457;-63
2024/04/09 04:23:38;;;;;;;395.23;379.03;;;14.20;98.80;;;;;;5513161;25;20855;-64
2024/04/09 04:26:07;;;;;;;401.23;384.53;;;14.20;99.30;;;;;;5506811;26;20469;-64
2024/04/09 04:28:34;;;;;;;388.20;372.20;;;14.20;99.20;;;;;;5524995;25;20227;-65
2024/04/09 04:31:08;;;;;;;411.63;398.70;;;14.20;99.30;;;;;;5524657;25;20476;-65
2024/04/09 04:33:35;;;;;;;425.53;412.13;;;14.20;99.30;;;;;;5512923;25;20478;-64
2024/04/09 04:36:03;;;;;;;512.57;495.47;;;14.20;99.30;;;;;;5487751;26;20945;-65
2024/04/09 04:38:29;;;;;;;557.67;538.67;;;14.10;99.30;;;;;;5513274;25;20600;-65
2024/04/09 04:40:58;;;;;;;535.80;517.67;;;14.10;99.30;;;;;;5498942;25;20474;-65
2024/04/09 04:43:25;;;;;;;586.23;563.93;;;14.10;99.50;;;;;;5483903;26;20275;-65
2024/04/09 04:45:54;;;;;;;616.97;593.07;;;14.00;99.90;;;;;;5528091;25;20811;-64
2024/04/09 04:48:23;;;;;;;624.90;599.97;;;14.00;99.90;;;;;;5533484;25;20220;-65
2024/04/09 04:50:52;;;;;;;612.93;588.83;;;14.10;99.90;;;;;;5509887;25;20522;-65
2024/04/09 04:53:18;;;;;;;549.23;530.07;;;14.00;99.90;;;;;;5495698;25;20464;-64
2024/04/09 04:55:47;;;;;;;559.00;539.40;;;14.10;99.90;;;;;;5496122;25;20540;-65
2024/04/09 04:58:12;;;;;;;536.63;518.27;;;14.10;99.90;;;;;;5503107;25;20450;-64
2024/04/09 05:00:42;;;;;;;536.17;517.57;;;14.10;99.90;;;;;;5502761;26;20462;-65
2024/04/09 05:03:09;;;;;;;533.93;515.60;;;14.10;99.90;;;;;;5502847;26;20231;-65
2024/04/09 05:05:40;;;;;;;562.40;542.20;;;14.10;99.90;;;;;;5487655;26;20473;-64
2024/04/09 05:08:06;;;;;;;566.37;546.20;;;14.10;99.90;;;;;;5507143;25;20468;-65
2024/04/09 05:10:34;;;;;;;617.57;593.20;;;14.00;99.90;;;;;;5524257;25;20449;-64
2024/04/09 05:13:00;;;;;;;659.70;630.40;;;13.90;99.90;;;;;;5521932;25;20950;-61
2024/04/09 05:15:29;;;;;;;807.77;764.23;;;13.90;99.90;;;;;;5524120;25;20468;-64
2024/04/09 05:17:55;;;;;;;852.87;804.63;;;13.80;99.90;;;;;;5507873;25;20743;-64
2024/04/09 05:20:26;;;;;;;894.20;841.70;;;13.80;99.90;;;;;;5510618;25;20585;-64
2024/04/09 05:22:57;;;;;;;938.83;883.40;;;13.80;99.90;;;;;;5523926;25;20474;-64
2024/04/09 05:25:26;;;;;;;995.67;936.67;;;13.70;99.90;;;;;;5495078;26;20469;-63
2024/04/09 05:27:52;;;;;;;962.53;905.70;;;13.70;99.90;;;;;;5523537;25;20527;-64
2024/04/09 05:30:21;;;;;;;988.60;929.40;;;13.70;99.90;;;;;;5523257;25;20553;-64
2024/04/09 05:32:46;;;;;;;984.77;926.97;;;13.70;99.90;;;;;;5523713;25;20562;-64
2024/04/09 05:35:18;;;;;;;1033.30;972.37;;;13.70;99.90;;;;;;5492613;25;20847;-63
2024/04/09 05:37:44;;;;;;;1070.10;999.90;;;13.60;99.90;;;;;;5480098;26;20522;-64
2024/04/09 05:40:16;;;;;;;1098.70;999.90;;;13.60;99.90;;;;;;5482817;26;20807;-64
2024/04/09 05:42:45;;;;;;;1129.60;999.90;;;13.70;99.90;;;;;;5480680;26;20477;-63
2024/04/09 05:45:16;;;;;;;1094.90;999.90;;;13.60;99.90;;;;;;5523506;25;20456;-64
2024/04/09 05:47:42;;;;;;;1059.40;994.83;;;13.70;99.90;;;;;;5494933;25;20571;-64
2024/04/09 05:50:10;;;;;;;1000.03;940.50;;;13.70;99.90;;;;;;5480226;26;20885;-64
2024/04/09 05:52:36;;;;;;;972.53;916.33;;;13.70;99.90;;;;;;5490474;26;20236;-64
2024/04/09 05:55:05;;;;;;;956.47;901.87;;;13.70;99.90;;;;;;5500122;25;20589;-63
2024/04/09 05:57:36;;;;;;;939.07;885.67;;;13.70;99.90;;;;;;5492817;26;20466;-63
2024/04/09 06:00:08;;;;;;;942.03;889.47;;;13.60;99.90;;;;;;5502433;25;20576;-63
2024/04/09 06:02:34;;;;;;;808.80;766.20;;;13.70;99.90;;;;;;5476058;26;20582;-63
2024/04/09 06:05:02;;;;;;;740.97;705.17;;;13.70;99.90;;;;;;5480307;26;20458;-63
2024/04/09 06:07:30;;;;;;;660.53;630.20;;;13.60;99.90;;;;;;5480826;26;20267;-63
2024/04/09 06:09:58;;;;;;;668.33;637.93;;;13.50;99.90;;;;;;5489284;26;20909;-63
2024/04/09 06:12:24;;;;;;;678.37;646.90;;;13.50;99.90;;;;;;5489187;26;21068;-62
2024/04/09 06:14:57;;;;;;;656.57;627.47;;;13.40;99.90;;;;;;5489724;26;20465;-64
2024/04/09 06:17:23;;;;;;;675.97;645.63;;;13.30;99.90;;;;;;5490227;26;20267;-63
2024/04/09 06:19:53;;;;;;;737.10;701.30;;;13.30;99.90;;;;;;5518916;26;20940;-63
2024/04/09 06:22:19;;;;;;;719.83;686.03;;;13.30;99.90;;;;;;5477286;25;20822;-63
2024/04/09 06:24:50;;;;;;;732.40;697.90;;;13.20;99.90;;;;;;5488917;26;21016;-63
2024/04/09 06:27:16;;;;;;;761.03;724.27;;;13.20;99.90;;;;;;5495753;25;20224;-63
2024/04/09 06:29:45;;;;;;;774.37;736.67;;;13.10;99.90;;;;;;5525076;25;20452;-60
2024/04/09 06:32:13;;;;;;;739.53;704.93;;;13.00;99.90;;;;;;5525542;25;20739;-63
2024/04/09 06:34:42;;;;;;;750.13;714.93;;;12.90;99.90;;;;;;5525625;25;20540;-63
2024/04/09 06:37:07;;;;;;;761.70;725.67;;;12.90;99.90;;;;;;5526699;25;20607;-63
2024/04/09 06:39:36;;;;;;;713.97;682.77;;;12.80;99.90;;;;;;5496765;25;20466;-66
2024/04/09 06:42:02;;;;;;;713.30;682.13;;;12.80;99.90;;;;;;5485491;26;20249;-63
2024/04/09 06:44:30;;;;;;;669.93;643.60;;;12.80;99.90;;;;;;5489056;26;20525;-64
2024/04/09 06:46:56;;;;;;;677.47;650.43;;;12.80;99.90;;;;;;5483761;26;20466;-63
2024/04/09 06:49:27;;;;;;;459.17;445.27;;;12.80;99.90;;;;;;5481801;26;20592;-64
2024/04/09 06:51:53;;;;;;;274.80;267.07;;;12.80;99.90;;;;;;5467643;26;20633;-64
2024/04/09 06:54:22;;;;;;;292.93;284.63;;;12.60;98.70;;;;;;5489137;25;20763;-64
2024/04/09 06:56:48;;;;;;;241.90;234.47;;;12.60;98.70;;;;;;5477433;26;20257;-64
2024/04/09 06:59:17;;;;;;;222.60;216.00;;;12.50;98.60;;;;;;5493248;26;20462;-64
2024/04/09 07:01:42;;;;;;;318.13;309.23;;;12.50;98.60;;;;;;5488449;26;20474;-64
2024/04/09 07:04:11;;;;;;;263.07;255.50;;;12.50;98.70;;;;;;5478424;26;20475;-64
2024/04/09 07:06:40;;;;;;;378.83;368.17;;;12.40;98.60;;;;;;5488891;26;20930;-64
2024/04/09 07:09:09;;;;;;;338.97;329.47;;;12.40;98.60;;;;;;5468249;26;20455;-64
2024/04/09 07:11:36;;;;;;;395.17;383.87;;;12.40;98.60;;;;;;5493340;26;20462;-67
2024/04/09 07:14:05;;;;;;;481.97;468.17;;;12.50;98.70;;;;;;5482384;26;20519;-67
2024/04/09 07:16:32;;;;;;;119.20;114.63;;;12.60;98.70;;;;;;5525911;25;20520;-66
2024/04/09 07:19:00;;;;;;;23.67;22.43;;;12.60;92.00;;;;;;5525900;25;20575;-67
2024/04/09 07:21:26;;;;;;;6.90;3.20;;;12.60;79.30;;;;;;5505476;25;21133;-66
2024/04/09 07:23:57;;;;;;;4.30;2.60;;;12.60;71.50;;;;;;5494331;26;20476;-66
2024/04/09 07:26:23;;;;;;;5.97;2.83;;;12.50;68.00;;;;;;5505826;25;20276;-66
2024/04/09 07:28:51;;;;;;;8.37;3.97;;;12.50;71.30;;;;;;5489058;26;20579;-67
2024/04/09 07:31:17;;;;;;;5.70;3.73;;;12.50;63.40;;;;;;5473994;26;20710;-65
2024/04/09 07:33:49;;;;;;;5.87;4.20;;;12.60;69.10;;;;;;5481006;26;20483;-66
2024/04/09 07:36:15;;;;;;;5.93;5.33;;;12.60;71.40;;;;;;5488472;25;20527;-66
2024/04/09 07:38:44;;;;;;;6.77;5.20;;;12.70;67.20;;;;;;5491081;26;20563;-65
2024/04/09 07:41:12;;;;;;;6.87;3.67;;;12.80;63.60;;;;;;5485484;26;20232;-66
2024/04/09 07:43:40;;;;;;;7.13;3.33;;;12.80;63.50;;;;;;5486536;26;20882;-63
2024/04/09 07:46:07;;;;;;;6.70;1.90;;;12.90;63.50;;;;;;5491339;26;20762;-64
2024/04/09 07:48:35;;;;;;;9.43;3.60;;;13.00;61.80;;;;;;5488291;26;20533;-63
2024/04/09 07:51:03;;;;;;;5.70;1.30;;;13.10;62.60;;;;;;5488582;26;20569;-64
2024/04/09 07:53:31;;;;;;;8.83;3.00;;;13.20;57.00;;;;;;5486220;25;20515;-64
2024/04/09 07:55:57;;;;;;;6.60;1.83;;;13.30;55.70;;;;;;5489136;26;20521;-64
2024/04/09 07:58:28;;;;;;;5.00;1.43;;;13.50;55.80;;;;;;5491668;25;20587;-63
2024/04/09 08:00:54;;;;;;;5.30;1.43;;;13.40;47.10;;;;;;5487532;26;20465;-64
2024/04/09 08:03:23;;;;;;;7.10;1.77;;;13.50;49.20;;;;;;5482906;25;20793;-64
2024/04/09 08:05:49;;;;;;;5.60;1.83;;;13.70;55.50;;;;;;5487393;25;20282;-64
2024/04/09 08:08:18;;;;;;;8.45;1.65;;;13.70;47.30;;;;;;5498642;26;20346;-66
2024/04/09 08:10:48;;;;;;;4.77;1.40;;;13.70;47.30;;;;;;5488506;26;20229;-64
2024/04/09 08:13:13;;;;;;;6.40;1.30;;;13.80;47.40;;;;;;5461883;26;20471;-64
2024/04/09 08:15:44;;;;;;;4.43;1.10;;;13.80;46.40;;;;;;5476041;26;20517;-66
2024/04/09 08:18:10;;;;;;;6.80;1.60;;;13.80;46.80;;;;;;5481793;26;20218;-65
2024/04/09 08:20:39;;;;;;;4.47;1.40;;;13.80;39.20;;;;;;5483148;25;20457;-66
2024/04/09 08:23:05;;;;;;;6.50;1.67;;;13.70;29.70;;;;;;5487981;26;20286;-66
2024/04/09 08:25:34;;;;;;;4.10;1.17;;;13.70;28.00;;;;;;5488119;26;20465;-65
2024/04/09 08:28:01;;;;;;;9.10;1.63;;;13.70;29.10;;;;;;5479247;26;20226;-65
2024/04/09 08:30:30;;;;;;;6.27;1.70;;;13.60;22.40;;;;;;5490319;25;20450;-65
2024/04/09 08:32:59;;;;;;;6.37;1.30;;;13.60;22.50;;;;;;5487798;26;20485;-65
2024/04/09 08:35:28;;;;;;;4.40;1.10;;;13.60;22.40;;;;;;5470716;26;20783;-67
2024/04/09 08:37:54;;;;;;;6.20;1.50;;;13.60;23.90;;;;;;5491004;26;20556;-64
2024/04/09 08:40:24;;;;;;;5.17;1.47;;;13.60;22.40;;;;;;5482654;25;20510;-64
2024/04/09 08:42:52;;;;;;;6.80;1.43;;;13.70;21.90;;;;;;5482518;26;20525;-64
2024/04/09 08:45:21;;;;;;;8.13;1.37;;;13.60;22.40;;;;;;5485660;26;20780;-64
2024/04/09 08:47:48;;;;;;;8.23;1.57;;;13.60;22.40;;;;;;5485503;26;20481;-64
2024/04/09 08:50:19;;;;;;;6.30;1.60;;;13.60;22.40;;;;;;5483989;26;20463;-63
2024/04/09 08:52:45;;;;;;;7.27;1.30;;;13.50;22.40;;;;;;5469339;26;20571;-64
2024/04/09 08:55:15;;;;;;;6.40;1.40;;;13.50;22.30;;;;;;5494146;26;20895;-64
2024/04/09 08:57:41;;;;;;;6.00;1.30;;;13.50;22.30;;;;;;5490640;26;20267;-64
2024/04/09 09:00:10;;;;;;;5.23;1.40;;;13.60;22.20;;;;;;5485453;25;21077;-63
2024/04/09 09:02:36;;;;;;;7.10;1.30;;;13.50;18.40;;;;;;5470115;26;20468;-64
2024/04/09 09:05:06;;;;;;;4.90;1.10;;;13.50;15.10;;;;;;5482399;26;21006;-64
2024/04/09 09:07:35;;;;;;;12.70;1.60;;;13.70;22.50;;;;;;5480833;26;21028;-64
2024/04/09 09:10:04;;;;;;;6.53;1.27;;;13.60;15.10;;;;;;5480482;26;20518;-64
2024/04/09 09:12:30;;;;;;;4.50;1.10;;;13.60;15.10;;;;;;5475935;26;20466;-64
2024/04/09 09:15:00;;;;;;;5.13;1.37;;;13.80;17.90;;;;;;5494582;26;20509;-64
2024/04/09 09:17:29;;;;;;;6.93;2.30;;;13.80;15.50;;;;;;5486813;26;20804;-64
2024/04/09 09:20:08;;;;;;;6.00;1.13;;;13.80;17.60;;;;;;5488143;26;20466;-64
2024/04/09 09:22:42;;;;;;;5.00;1.73;;;13.80;18.30;;;;;;5490009;26;20556;-63
2024/04/09 09:25:15;;;;;;;7.10;1.00;;;13.60;15.10;;;;;;5488328;26;20960;-64
2024/04/09 09:27:43;;;;;;;7.80;1.20;;;13.40;15.00;;;;;;5489700;26;20597;-63
2024/04/09 09:30:12;;;;;;;4.50;1.57;;;13.40;15.00;;;;;;5489136;26;20525;-64
2024/04/09 09:32:42;;;;;;;5.57;1.40;;;13.10;14.70;;;;;;5509129;26;21051;-64
2024/04/09 09:35:18;;;;;;;10.23;2.63;;;13.10;14.70;;;;;;5506852;25;20470;-64
2024/04/09 09:37:48;;;;;;;8.03;1.50;;;13.10;14.70;;;;;;5518623;26;20593;-64
2024/04/09 09:40:18;;;;;;;9.40;1.63;;;13.10;14.70;;;;;;5484798;25;20576;-63
2024/04/09 09:42:44;;;;;;;9.63;1.63;;;13.30;14.90;;;;;;5488976;26;21028;-64
2024/04/09 09:45:12;;;;;;;6.07;1.30;;;13.70;15.20;;;;;;5504865;26;20551;-64
2024/04/09 09:47:39;;;;;;;4.33;1.17;;;14.00;15.40;;;;;;5499366;26;20463;-63
2024/04/09 09:50:11;;;;;;;5.83;1.27;;;14.70;15.80;;;;;;5493026;26;20471;-63
2024/04/09 09:52:39;;;;;;;7.10;1.50;;;15.50;13.80;;;;;;5488623;25;20509;-63
2024/04/09 09:55:12;;;;;;;8.07;1.47;;;16.10;9.40;;;;;;5493111;26;20512;-64
2024/04/09 09:57:41;;;;;;;15.67;2.10;;;16.10;1.70;;;;;;5514814;25;20815;-64
2024/04/09 10:00:14;;;;;;;9.53;1.77;;;16.10;1.70;;;;;;5489528;26;21199;-64
2024/04/09 10:02:44;;;;;;;8.03;2.40;;;16.10;1.70;;;;;;5487400;26;20461;-64
2024/04/09 10:05:14;;;;;;;8.73;1.73;;;16.50;2.00;;;;;;5478254;26;20667;-64
2024/04/09 10:07:40;;;;;;;6.63;1.60;;;16.80;2.20;;;;;;5476177;26;20469;-64
2024/04/09 10:10:12;;;;;;;6.70;1.60;;;17.00;2.30;;;;;;5503447;25;20877;-64
2024/04/09 10:12:38;;;;;;;5.57;1.47;;;16.90;1.00;;;;;;5488951;26;20453;-64
2024/04/09 10:15:11;;;;;;;5.90;2.20;;;16.80;2.10;;;;;;5492443;26;21008;-64
2024/04/09 10:17:47;;;;;;;8.07;2.10;;;17.10;2.40;;;;;;5497851;25;20224;-64
2024/04/09 10:20:22;;;;;;;6.17;1.47;;;17.00;1.00;;;;;;5482548;26;20462;-63
2024/04/09 10:22:51;;;;;;;6.83;1.30;;;16.90;2.30;;;;;;5482364;26;20526;-64
2024/04/09 10:25:24;;;;;;;8.57;1.50;;;16.80;1.30;;;;;;5475951;26;20473;-64
2024/04/09 10:28:00;;;;;;;7.00;1.40;;;16.60;2.10;;;;;;5471540;26;21034;-64
2024/04/09 10:30:30;;;;;;;10.93;2.80;;;16.50;2.00;;;;;;5482832;26;20569;-63
2024/04/09 10:32:57;;;;;;;6.30;1.33;;;16.60;2.10;;;;;;5482624;26;20463;-64
2024/04/09 10:35:25;;;;;;;9.30;1.60;;;16.20;1.80;;;;;;5489319;26;21073;-64
2024/04/09 10:37:53;;;;;;;10.70;1.67;;;16.10;1.00;;;;;;5476965;26;20581;-63
2024/04/09 10:40:25;;;;;;;6.73;1.40;;;15.90;1.60;;;;;;5483393;26;20457;-64
2024/04/09 10:42:52;;;;;;;9.53;2.13;;;15.70;1.00;;;;;;5492213;26;20539;-64
2024/04/09 10:45:20;;;;;;;5.40;1.77;;;15.60;1.00;;;;;;5480785;26;20543;-64
2024/04/09 10:47:46;;;;;;;6.70;1.30;;;15.60;1.00;;;;;;5481409;26;20517;-64
2024/04/09 10:50:17;;;;;;;6.63;1.40;;;15.60;1.00;;;;;;5496550;26;20878;-64
2024/04/09 10:52:44;;;;;;;6.30;1.10;;;15.80;1.00;;;;;;5504974;25;20598;-63
2024/04/09 10:55:13;;;;;;;8.30;2.10;;;16.20;1.00;;;;;;5526381;25;20528;-64
2024/04/09 10:57:44;;;;;;;7.00;1.53;;;16.20;1.00;;;;;;5526290;25;21078;-64
2024/04/09 11:00:15;;;;;;;11.93;1.50;;;16.70;1.00;;;;;;5494930;25;20865;-64
2024/04/09 11:02:42;;;;;;;8.00;1.33;;;16.60;1.00;;;;;;5485841;26;20458;-64
2024/04/09 11:05:12;;;;;;;6.47;1.40;;;16.60;1.00;;;;;;5481705;26;21031;-65
2024/04/09 11:07:39;;;;;;;6.90;1.30;;;16.80;1.00;;;;;;5481992;26;21020;-64
2024/04/09 11:10:10;;;;;;;10.83;1.57;;;17.10;1.00;;;;;;5470808;26;20894;-64
2024/04/09 11:12:37;;;;;;;6.20;1.63;;;16.90;1.00;;;;;;5473936;26;20513;-63
2024/04/09 11:15:10;;;;;;;4.80;1.30;;;17.00;1.00;;;;;;5488786;26;20843;-64
2024/04/09 11:17:36;;;;;;;8.43;2.30;;;17.10;1.00;;;;;;5492859;26;20516;-64
2024/04/09 11:20:09;;;;;;;7.37;1.37;;;16.80;1.00;;;;;;5480368;25;20467;-64
2024/04/09 11:22:39;;;;;;;6.03;1.30;;;16.70;1.00;;;;;;5484227;26;20461;-64
2024/04/09 11:25:11;;;;;;;6.23;1.40;;;16.50;1.00;;;;;;5493994;25;20513;-64
2024/04/09 11:27:38;;;;;;;6.43;1.50;;;16.20;1.00;;;;;;5496623;25;20518;-64
2024/04/09 11:30:11;;;;;;;7.03;1.17;;;16.40;1.00;;;;;;5476996;26;20534;-64
2024/04/09 11:32:39;;;;;;;8.30;1.83;;;16.80;1.00;;;;;;5482419;25;20571;-64
2024/04/09 11:35:18;;;;;;;6.20;1.27;;;16.70;1.00;;;;;;5498283;26;20473;-64
2024/04/09 11:37:48;;;;;;;6.37;1.60;;;16.70;1.00;;;;;;5525005;25;21139;-63
2024/04/09 11:40:17;;;;;;;6.80;1.50;;;16.80;1.00;;;;;;5518308;25;20550;-64
2024/04/09 11:42:43;;;;;;;4.63;1.00;;;17.10;1.00;;;;;;5499236;26;20472;-64
2024/04/09 11:45:23;;;;;;;8.10;1.33;;;17.10;1.00;;;;;;5487766;25;20385;-64
2024/04/09 11:47:49;;;;;;;9.80;1.70;;;17.00;1.00;;;;;;5479917;26;20359;-64
2024/04/09 11:50:18;;;;;;;10.40;2.13;;;16.80;1.00;;;;;;5487185;26;20518;-64
2024/04/09 11:52:45;;;;;;;4.93;1.30;;;17.00;1.00;;;;;;5488538;26;20581;-64
2024/04/09 11:55:13;;;;;;;6.93;1.37;;;17.00;1.00;;;;;;5488346;26;20466;-65
2024/04/09 11:57:40;;;;;;;9.60;1.90;;;17.40;1.00;;;;;;5488364;26;20529;-64
2024/04/09 12:00:12;;;;;;;8.20;2.13;;;18.30;1.00;;;;;;5503270;26;20518;-64
2024/04/09 12:02:41;;;;;;;10.73;1.47;;;18.70;1.00;;;;;;5488713;26;20514;-64
2024/04/09 12:05:10;;;;;;;6.80;1.30;;;19.10;1.00;;;;;;5523074;25;20456;-64
2024/04/09 12:07:37;;;;;;;6.37;1.47;;;18.90;1.00;;;;;;5513911;25;21162;-64
2024/04/09 12:10:06;;;;;;;9.17;1.50;;;18.90;1.00;;;;;;5487736;26;20450;-64
2024/04/09 12:12:32;;;;;;;7.80;1.20;;;18.90;1.00;;;;;;5513970;26;20542;-65
2024/04/09 12:15:01;;;;;;;7.20;1.50;;;18.60;1.00;;;;;;5524956;25;21003;-65
2024/04/09 12:17:27;;;;;;;8.63;2.70;;;18.70;1.00;;;;;;5525885;25;20504;-65
2024/04/09 12:19:58;;;;;;;9.53;3.47;;;18.70;1.00;;;;;;5524447;25;20449;-64
2024/04/09 12:22:25;;;;;;;5.27;1.40;;;18.90;1.00;;;;;;5524999;25;20573;-64
2024/04/09 12:24:54;;;;;;;6.37;2.10;;;18.70;1.00;;;;;;5494729;25;20466;-65
2024/04/09 12:27:20;;;;;;;5.03;1.17;;;18.20;1.00;;;;;;5489279;26;20450;-64
2024/04/09 12:29:49;;;;;;;12.80;1.67;;;17.50;1.00;;;;;;5501399;26;20521;-65
2024/04/09 12:32:15;;;;;;;4.40;1.07;;;17.10;1.00;;;;;;5519033;25;20325;-64
2024/04/09 12:34:43;;;;;;;8.37;2.43;;;17.20;1.00;;;;;;5500687;26;20472;-64
2024/04/09 12:37:12;;;;;;;7.07;1.00;;;17.30;1.00;;;;;;5524713;25;20604;-64